Nearby METAR Reports

 

KTAN - Taunton, Massachusetts, USA
Distance from station: W 5mi, 8km
Updated: 04/02/2020 3:52am
Light rain, Overcast
Light rain, Overcast
 Wind from NNW
Wind: NNW 10 mph , 17 km/h, Gust: 17 mph , 28 km/h
Temperature: 39°F , 4°C
Wind Chill: 32°F , 0°C
Dew Point: 34°F , 1°C
Humidity: 81%
Barometer: 29.59 inHg , 1002 hPa
Summary: Light rain
Clouds: Overcast
Visibility: 10 miles , 16 km
Cloud details: Overcast 2200 ft
2020/04/02 07:52 KTAN 020752Z AUTO 33009G15KT 10SM -RA OVC022 04/01 A2959 RMK AO2 RAB0654 SLP021 P0001 T00440011
KPYM - Plymouth, Massachusetts, USA
Distance from station: ENE 10mi, 16km
Updated: 04/02/2020 3:52am
Light rain, Overcast
Light rain, Overcast
 Wind from NNW
Wind: NNW 10 mph , 17 km/h
Temperature: 37°F , 3°C
Wind Chill: 30°F , -1°C
Dew Point: 36°F , 2°C
Humidity: 93%
Barometer: 29.57 inHg , 1001.4 hPa
Summary: Light rain
Clouds: Overcast
Visibility: 10 miles , 16 km
Cloud details: Overcast 1500 ft
2020/04/02 07:52 KPYM 020752Z AUTO 33009KT 10SM -RA OVC015 03/02 A2957 RMK AO2 SLP012 P0002 T00330022 $
 
KEWB - New Bedford, Massachusetts, USA
Distance from station: S 14mi, 23km
Updated: 04/02/2020 3:53am
Light rain, Overcast
Light rain, Overcast
 Wind from NNW
Wind: NNW 8 mph , 13 km/h
Temperature: 37°F , 3°C
Wind Chill: 31°F , -1°C
Dew Point: 37°F , 3°C
Humidity: 100%
Barometer: 29.58 inHg , 1001.7 hPa
Summary: Light rain
Clouds: Overcast
Visibility: 10 miles , 16 km
Cloud details: Mostly cloudy 2100 ft
Overcast 4000 ft
2020/04/02 07:53 KEWB 020753Z AUTO 34007KT 300V010 10SM -RA BKN021 OVC040 03/03 A2958 RMK AO2 RAB0659 SLP016 P0000 T00330028
KGHG - Marshfield, Massachusetts, USA
Distance from station: NE 20mi, 31km
Updated: 04/02/2020 3:55am
Light rain, Mostly cloudy
Light rain, Mostly cloudy
 Wind from NNW
Wind: NNW 10 mph , 17 km/h, Gust: 21 mph , 33 km/h
Temperature: 41°F , 5°C
Wind Chill: 35°F , 2°C
Dew Point: 37°F , 3°C
Humidity: 87%
Barometer: 29.58 inHg , 1001.7 hPa
Summary: Light rain
Clouds: Mostly cloudy
Visibility: 10 miles , 16 km
Cloud details: Mostly cloudy 1600 ft
2020/04/02 07:55 KGHG 020755Z AUTO 33009G18KT 10SM -RA BKN016 05/03 A2958 RMK AO2 P0003
 
KOWD - Norwood, Massachusetts, USA
Distance from station: NNW 24mi, 39km
Updated: 04/02/2020 3:53am
Overcast
Overcast
 Wind from NNW
Wind: NNW 7 mph , 11 km/h, Gust: 18 mph , 30 km/h
Temperature: 43°F , 6°C
Wind Chill: 39°F , 4°C
Dew Point: 30°F , -1°C
Humidity: 61%
Barometer: 29.61 inHg , 1002.7 hPa
Clouds: Overcast
Visibility: 10 miles , 16 km
Cloud details: Overcast 2600 ft
2020/04/02 07:53 KOWD 020753Z AUTO 33006G16KT 10SM OVC026 06/M01 A2961 RMK AO2 SLP027 T00561006
KMQE - East Milton, Massachusetts, USA
Distance from station: NNW 25mi, 40km
Updated: 04/02/2020 3:51am

 Wind from NW
Wind: NW 12 mph , 19 km/h, Gust: 26 mph , 43 km/h
Temperature: 37°F , 3°C
Wind Chill: 29°F , -2°C
Dew Point: 32°F , 0°C
Humidity: 81%
Barometer: 29.58 inHg , 1001.7 hPa
2020/04/02 07:51 KMQE 020751Z AUTO 32010G23KT 03/00 A2958 RMK AO1 SLP030 T00280000
 
KFMH - Falmouth/Otis Ab, Massachusetts, USA
Distance from station: SE 27mi, 44km
Updated: 04/02/2020 3:55am
Light drizzle, Overcast
Light drizzle, Overcast
 Wind from N
Wind: N 13 mph , 20 km/h, Gust: 18 mph , 30 km/h
Temperature: 37°F , 3°C
Wind Chill: 29°F , -2°C
Dew Point: 37°F , 3°C
Humidity: 100%
Barometer: 29.55 inHg , 1000.7 hPa
Summary: Light Drizzle
Clouds: Overcast
Visibility: 10 miles , 16 km
Cloud details: Overcast 1000 ft
2020/04/02 07:55 KFMH 020755Z 01011G16KT 10SM -DZ OVC010 03/03 A2955
KPVD - Providence/Green, Rhode Island, USA
Distance from station: WSW 29mi, 47km
Updated: 04/02/2020 3:51am
Overcast
Overcast
 Wind from NNW
Wind: NNW 13 mph , 20 km/h, Gust: 23 mph , 37 km/h
Temperature: 43°F , 6°C
Wind Chill: 36°F , 2°C
Dew Point: 30°F , -1°C
Humidity: 61%
Barometer: 29.61 inHg , 1002.7 hPa
Clouds: Overcast
Visibility: 10 miles , 16 km
Cloud details: Overcast 5000 ft
2020/04/02 07:51 KPVD 020751Z AUTO 34011G20KT 10SM OVC050 06/M01 A2961 RMK AO2 SLP027 T00561011
 
KSFZ - Pawtucket, Rhode Island, USA
Distance from station: W 30mi, 48km
Updated: 04/02/2020 3:56am
Mostly cloudy
Mostly cloudy
 Wind from NNW
Wind: NNW 15 mph , 24 km/h, Gust: 22 mph , 35 km/h
Temperature: 39°F , 4°C
Wind Chill: 31°F , -1°C
Dew Point: 30°F , -1°C
Humidity: 70%
Barometer: 29.61 inHg , 1002.7 hPa
Clouds: Mostly cloudy
Visibility: 10 miles , 16 km
Cloud details: Partly cloudy 2700 ft
Partly cloudy 3500 ft
Mostly cloudy 4300 ft
2020/04/02 07:56 KSFZ 020756Z AUTO 34013G19KT 10SM SCT027 SCT035 BKN043 04/M01 A2961 RMK AO2 SLP974 T00391011
KUUU - Newport, Rhode Island, USA
Distance from station: SW 31mi, 50km
Updated: 04/02/2020 3:53am
Light rain, Overcast
Light rain, Overcast
 Wind from NNW
Wind: NNW 17 mph , 28 km/h, Gust: 24 mph , 39 km/h
Temperature: 43°F , 6°C
Wind Chill: 35°F , 2°C
Dew Point: 30°F , -1°C
Humidity: 61%
Barometer: 29.58 inHg , 1001.7 hPa
Summary: Light rain
Clouds: Overcast
Visibility: 10 miles , 16 km
Cloud details: Partly cloudy 2900 ft
Mostly cloudy 4600 ft
Overcast 7000 ft
2020/04/02 07:53 KUUU 020753Z AUTO 34015G21KT 10SM -RA SCT029 BKN046 OVC070 06/M01 A2958 RMK AO2 PK WND 34026/0721 RAB35 SLP018 P0000 T00561006
 
KOQU - N. Kingston/Quon, Rhode Island, USA
Distance from station: SW 32mi, 52km
Updated: 04/01/2020 10:50pm
NOT Current
Mostly cloudy
Mostly cloudy
 Wind from N
Wind: N 8 mph , 13 km/h
Temperature: 41°F , 5°C
Wind Chill: 36°F , 2°C
Dew Point: 32°F , 0°C
Humidity: 70%
Barometer: 29.68 inHg , 1005.1 hPa
Clouds: Mostly cloudy
Visibility: 10 miles , 16 km
Cloud details: Mostly cloudy 25000 ft
2020/04/02 02:50 KOQU 020250Z 35007KT 10SM BKN250 05/00 A2968 RMK LAST
KBOS - Boston, Massachusetts, USA
Distance from station: N 33mi, 54km
Updated: 04/02/2020 4:02am
Light rain, Overcast
Light rain, Overcast
 Wind from NW
Wind: NW 14 mph , 22 km/h
Temperature: 39°F , 4°C
Wind Chill: 31°F , -1°C
Dew Point: 34°F , 1°C
Humidity: 81%
Barometer: 29.61 inHg , 1002.7 hPa
Summary: Light rain
Clouds: Overcast
Visibility: 10 miles , 16 km
Cloud details: Mostly cloudy 2800 ft
Mostly cloudy 4100 ft
Overcast 6000 ft
2020/04/02 08:02 KBOS 020802Z 32012KT 10SM -RA BKN028 BKN041 OVC060 04/01 A2961 RMK AO2 P0000 T00390006
 
KHYA - Hyannis, Massachusetts, USA
Distance from station: ESE 37mi, 59km
Updated: 04/02/2020 3:56am
Light rain, Overcast
Light rain, Overcast
 Wind from N
Wind: N 18 mph , 30 km/h, Gust: 30 mph , 48 km/h
Temperature: 41°F , 5°C
Wind Chill: 32°F , 0°C
Dew Point: 37°F , 3°C
Humidity: 87%
Barometer: 29.51 inHg , 999.3 hPa
Summary: Light rain
Clouds: Overcast
Visibility: 9 miles , 14 km
Cloud details: Overcast 1000 ft
2020/04/02 07:56 KHYA 020756Z AUTO 35016G26KT 9SM -RA OVC010 05/03 A2951 RMK AO2 PK WND 01029/0730 CIG 008V013 SLP995 P0001 T00500028
KMVY - Marthas Vineyard, Massachusetts, USA
Distance from station: SSE 37mi, 60km
Updated: 04/02/2020 3:53am
Light rain, Overcast
Light rain, Overcast
 Wind from NNW
Wind: NNW 16 mph , 26 km/h, Gust: 25 mph , 41 km/h
Temperature: 39°F , 4°C
Wind Chill: 30°F , -1°C
Dew Point: 36°F , 2°C
Humidity: 87%
Barometer: 29.55 inHg , 1000.7 hPa
Summary: Light rain
Clouds: Overcast
Visibility: 10 miles , 16 km
Cloud details: Overcast 1200 ft
2020/04/02 07:53 KMVY 020753Z AUTO 34014G22KT 10SM -RA OVC012 04/02 A2955 RMK AO2 SLP006 P0001 T00390022
 
KPVC - Provincetown, Massachusetts, USA
Distance from station: ENE 38mi, 61km
Updated: 04/02/2020 3:56am
Light rain, Overcast
Light rain, Overcast
 Wind from N
Wind: N 26 mph , 43 km/h, Gust: 33 mph , 54 km/h
Temperature: 39°F , 4°C
Wind Chill: 28°F , -2°C
Dew Point: 37°F , 3°C
Humidity: 93%
Barometer: 29.56 inHg , 1001 hPa
Summary: Light rain
Clouds: Overcast
Visibility: 7 miles , 11 km
Cloud details: Overcast 900 ft
2020/04/02 07:56 KPVC 020756Z AUTO 35023G29KT 7SM -RA OVC009 04/03 A2956 RMK AO2 PK WND 35029/0756 SLP008 P0000 T00440033
KBED - Bedford, Massachusetts, USA
Distance from station: NNW 44mi, 72km
Updated: 04/02/2020 3:51am
Overcast
Overcast
 Wind from NW
Wind: NW 12 mph , 19 km/h
Temperature: 41°F , 5°C
Wind Chill: 34°F , 1°C
Dew Point: 30°F , -1°C
Humidity: 66%
Barometer: 29.62 inHg , 1003 hPa
Clouds: Overcast
Visibility: 10 miles , 16 km
Cloud details: Overcast 3000 ft
2020/04/02 07:51 KBED 020751Z AUTO 32010KT 10SM OVC030 05/M01 A2962 RMK AO2 RAB27E39 SLP044 P0000 T00501011
 
KBVY - Beverly, Massachusetts, USA
Distance from station: 0 48mi, 77km
Updated: 04/02/2020 3:53am
Light rain, Overcast
Light rain, Overcast
 Wind from NNW
Wind: NNW 10 mph , 17 km/h
Temperature: 39°F , 4°C
Wind Chill: 32°F , 0°C
Dew Point: 36°F , 2°C
Humidity: 87%
Barometer: 29.60 inHg , 1002.4 hPa
Summary: Light rain
Clouds: Overcast
Visibility: 10 miles , 16 km
Cloud details: Overcast 2700 ft
2020/04/02 07:53 KBVY 020753Z AUTO 33009KT 10SM -RA OVC027 04/02 A2960 RMK AO2 SLP019 P0000 T00390017
KCQX - Chatham, Massachusetts, USA
Distance from station: ESE 49mi, 80km
Updated: 04/02/2020 3:52am
Light rain, Overcast
Light rain, Overcast
 Wind from N
Wind: N 9 mph , 15 km/h, Gust: 22 mph , 35 km/h
Temperature: 39°F , 4°C
Wind Chill: 33°F , 1°C
Dew Point: 36°F , 2°C
Humidity: 87%
Barometer: 29.52 inHg , 999.7 hPa
Summary: Light rain
Clouds: Overcast
Visibility: 8 miles , 13 km
Cloud details: Overcast 900 ft
2020/04/02 07:52 KCQX 020752Z AUTO 35008G19KT 310V030 8SM -RA OVC009 04/02 A2952 RMK AO2 SLP999 P0004 T00440022